createdAt,value
2022-12-18T00:00:30.864Z,24.43
2022-12-18T00:02:59.462Z,24.40
2022-12-18T00:05:30.423Z,24.67
2022-12-18T00:07:59.364Z,24.03
2022-12-18T00:10:29.748Z,23.90
2022-12-18T00:13:03.801Z,24.17
2022-12-18T00:15:37.235Z,23.77
2022-12-18T00:18:12.944Z,24.13
2022-12-18T00:20:43.741Z,23.00
2022-12-18T00:23:12.840Z,23.57
2022-12-18T00:25:41.412Z,22.63
2022-12-18T00:28:12.886Z,24.33
2022-12-18T00:30:42.211Z,23.67
2022-12-18T00:33:11.957Z,22.83
2022-12-18T00:35:41.178Z,23.50
2022-12-18T00:38:10.068Z,23.77
2022-12-18T00:40:41.993Z,23.70
2022-12-18T00:43:12.098Z,23.20
2022-12-18T00:45:41.692Z,22.53
2022-12-18T00:48:10.592Z,23.40
2022-12-18T00:50:39.720Z,23.50
2022-12-18T00:53:08.713Z,24.13
2022-12-18T00:55:37.448Z,22.93
2022-12-18T00:58:06.171Z,22.93
2022-12-18T01:00:37.042Z,23.50
2022-12-18T01:03:06.693Z,24.47
2022-12-18T01:05:36.302Z,23.80
2022-12-18T01:08:05.522Z,23.10
2022-12-18T01:10:34.332Z,22.43
2022-12-18T01:13:05.805Z,23.17
2022-12-18T01:15:37.003Z,24.20
2022-12-18T01:18:05.912Z,23.73
2022-12-18T01:20:34.971Z,24.03
2022-12-18T01:23:03.817Z,23.30
2022-12-18T01:25:32.299Z,24.97
2022-12-18T01:28:02.285Z,25.43
2022-12-18T01:30:31.836Z,24.77
2022-12-18T01:33:03.065Z,24.83
2022-12-18T01:35:32.090Z,23.87
2022-12-18T01:38:01.262Z,24.80
2022-12-18T01:40:30.855Z,25.27
2022-12-18T01:42:59.670Z,24.23
2022-12-18T01:45:30.858Z,24.93
2022-12-18T01:48:04.339Z,24.20
2022-12-18T01:50:36.428Z,25.60
2022-12-18T01:53:09.271Z,24.27
2022-12-18T01:55:41.412Z,24.67
2022-12-18T01:58:10.105Z,26.43
2022-12-18T02:00:39.674Z,25.83
2022-12-18T02:03:11.515Z,25.20
2022-12-18T02:05:49.111Z,24.47
2022-12-18T02:08:24.330Z,23.53
2022-12-18T02:11:06.494Z,24.10
2022-12-18T02:13:43.973Z,24.47
2022-12-18T02:16:21.686Z,23.43
2022-12-18T02:19:00.872Z,23.83
2022-12-18T02:21:39.437Z,24.30
2022-12-18T02:24:27.231Z,23.50
2022-12-18T02:27:01.316Z,23.20
2022-12-18T02:29:36.144Z,24.37
2022-12-18T02:32:08.998Z,23.23
2022-12-18T02:34:42.602Z,23.57
2022-12-18T02:37:19.511Z,23.97
2022-12-18T02:39:52.120Z,24.07
2022-12-18T02:42:24.870Z,23.97
2022-12-18T02:44:55.204Z,23.77
2022-12-18T02:47:30.565Z,23.47
2022-12-18T02:50:05.788Z,23.37
2022-12-18T02:52:42.070Z,23.30
2022-12-18T02:55:28.360Z,23.47
2022-12-18T02:58:08.152Z,25.17
2022-12-18T03:00:45.469Z,23.23
2022-12-18T03:03:19.594Z,21.97
2022-12-18T03:05:53.192Z,22.00
2022-12-18T03:08:25.856Z,22.27
2022-12-18T03:11:04.258Z,22.13
2022-12-18T03:13:42.104Z,22.03
2022-12-18T03:16:18.067Z,21.60
2022-12-18T03:18:50.828Z,21.40
2022-12-18T03:21:23.844Z,21.90
2022-12-18T03:23:55.940Z,21.80
2022-12-18T03:26:32.173Z,21.90
2022-12-18T03:29:12.475Z,21.00
2022-12-18T03:31:50.261Z,21.17
2022-12-18T03:34:25.760Z,21.67
2022-12-18T03:36:56.393Z,20.77
2022-12-18T03:39:26.929Z,21.47
2022-12-18T03:42:05.956Z,20.87
2022-12-18T03:44:47.027Z,20.57
2022-12-18T03:47:20.373Z,20.50
2022-12-18T03:49:53.029Z,20.23
2022-12-18T03:52:30.706Z,19.57
2022-12-18T03:55:03.649Z,19.60
2022-12-18T03:57:35.382Z,19.47
2022-12-18T04:00:11.792Z,18.73
2022-12-18T04:02:56.590Z,19.40
2022-12-18T04:05:35.160Z,19.63
2022-12-18T04:08:05.803Z,19.60
2022-12-18T04:10:38.904Z,20.53
2022-12-18T04:13:08.005Z,21.17
2022-12-18T04:15:41.496Z,20.33
2022-12-18T04:18:15.389Z,19.37
2022-12-18T04:20:45.751Z,20.43
2022-12-18T04:23:14.806Z,22.43
2022-12-18T04:25:44.049Z,20.87
2022-12-18T04:28:18.481Z,19.97
2022-12-18T04:30:50.085Z,20.23
2022-12-18T04:33:18.941Z,20.50
2022-12-18T04:35:47.808Z,21.47
2022-12-18T04:38:16.905Z,20.13
2022-12-18T04:40:46.908Z,20.87
2022-12-18T04:43:23.480Z,20.40
2022-12-18T04:45:54.887Z,20.60
2022-12-18T04:48:25.415Z,22.23
2022-12-18T04:50:55.682Z,20.80
2022-12-18T04:53:26.255Z,22.47
2022-12-18T04:56:05.994Z,22.60
2022-12-18T04:58:34.852Z,21.80
2022-12-18T05:01:06.264Z,21.70
2022-12-18T05:03:35.138Z,21.77
2022-12-18T05:06:04.254Z,22.40
2022-12-18T05:08:32.822Z,21.27
2022-12-18T05:11:03.050Z,21.23
2022-12-18T05:13:32.976Z,22.80
2022-12-18T05:16:01.884Z,21.97
2022-12-18T05:18:33.520Z,21.47
2022-12-18T05:21:02.774Z,21.23
2022-12-18T05:23:32.750Z,21.23
2022-12-18T05:26:03.793Z,21.47
2022-12-18T05:28:36.168Z,21.13
2022-12-18T05:31:06.431Z,20.30
2022-12-18T05:33:38.693Z,21.17
2022-12-18T05:36:10.494Z,21.00
2022-12-18T05:38:41.391Z,20.87
2022-12-18T05:41:11.633Z,20.73
2022-12-18T05:43:43.115Z,19.90
2022-12-18T05:46:15.899Z,21.03
2022-12-18T05:48:48.624Z,20.77
2022-12-18T05:51:19.566Z,21.07
2022-12-18T05:53:48.852Z,21.43
2022-12-18T05:56:20.797Z,19.87
2022-12-18T05:58:50.058Z,20.23
2022-12-18T06:01:21.379Z,21.57
2022-12-18T06:03:52.560Z,22.27
2022-12-18T06:06:24.865Z,20.97
2022-12-18T06:08:55.043Z,21.57
2022-12-18T06:11:26.959Z,20.57
2022-12-18T06:13:59.053Z,22.00
2022-12-18T06:16:29.233Z,20.97
2022-12-18T06:19:01.894Z,20.33
2022-12-18T06:21:32.022Z,20.50
2022-12-18T06:24:03.392Z,21.07
2022-12-18T06:26:32.460Z,21.27
2022-12-18T06:29:01.686Z,19.57
2022-12-18T06:31:30.701Z,19.77
2022-12-18T06:34:01.777Z,21.03
2022-12-18T06:36:31.035Z,20.60
2022-12-18T06:39:00.185Z,20.63
2022-12-18T06:41:29.337Z,19.33
2022-12-18T06:43:59.929Z,20.77
2022-12-18T06:46:29.604Z,21.23
2022-12-18T06:48:58.566Z,22.00
2022-12-18T06:51:29.761Z,20.77
2022-12-18T06:53:58.959Z,21.20
2022-12-18T06:56:28.490Z,20.80
2022-12-18T06:58:57.591Z,21.43
2022-12-18T07:01:27.010Z,21.27
2022-12-18T07:03:56.702Z,21.17
2022-12-18T07:06:29.743Z,21.07
2022-12-18T07:08:58.641Z,22.47
2022-12-18T07:11:27.563Z,22.50
2022-12-18T07:14:04.115Z,21.97
2022-12-18T07:16:33.094Z,21.30
2022-12-18T07:19:01.693Z,21.97
2022-12-18T07:21:34.145Z,20.53
2022-12-18T07:24:03.232Z,22.17
2022-12-18T07:26:33.275Z,19.93
2022-12-18T07:29:04.426Z,20.10
2022-12-18T07:31:33.399Z,22.10
2022-12-18T07:34:04.974Z,20.90
2022-12-18T07:36:36.516Z,19.90
2022-12-18T07:39:05.543Z,20.60
2022-12-18T07:41:34.344Z,71.23
2022-12-18T07:44:12.642Z,35.17
2022-12-18T07:46:48.057Z,24.07
2022-12-18T07:49:29.048Z,22.30
2022-12-18T07:52:25.580Z,21.17
2022-12-18T07:55:08.602Z,20.77
2022-12-18T07:58:05.325Z,20.93
2022-12-18T08:00:34.475Z,21.53
2022-12-18T08:03:03.861Z,20.77
2022-12-18T08:05:33.963Z,20.83
2022-12-18T08:08:14.397Z,20.23
2022-12-18T08:11:05.171Z,20.07
2022-12-18T08:13:39.181Z,21.67
2022-12-18T08:16:12.384Z,20.87
2022-12-18T08:18:41.558Z,21.70
2022-12-18T08:21:12.127Z,22.30
2022-12-18T08:23:44.068Z,21.67
2022-12-18T08:26:14.589Z,19.87
2022-12-18T08:28:44.278Z,19.87
2022-12-18T08:31:14.081Z,19.37
2022-12-18T08:33:44.325Z,19.60
2022-12-18T08:36:13.879Z,20.77
2022-12-18T08:38:44.646Z,18.87
2022-12-18T08:41:15.218Z,17.90
2022-12-18T08:43:57.197Z,17.77
2022-12-18T08:46:28.675Z,17.93
2022-12-18T08:48:58.496Z,17.97
2022-12-18T08:51:27.030Z,17.13
2022-12-18T08:53:58.300Z,17.57
2022-12-18T08:56:27.443Z,16.63
2022-12-18T08:58:57.013Z,18.33
2022-12-18T09:01:26.691Z,16.27
2022-12-18T09:03:55.990Z,21.77
2022-12-18T09:06:27.236Z,23.10
2022-12-18T09:08:58.340Z,17.47
2022-12-18T09:11:29.757Z,17.80
2022-12-18T09:14:00.913Z,22.27
2022-12-18T09:16:32.839Z,17.77
2022-12-18T09:19:02.659Z,15.47
2022-12-18T09:21:35.908Z,14.63
2022-12-18T09:24:09.591Z,14.87
2022-12-18T09:26:38.614Z,14.40
2022-12-18T09:29:09.625Z,14.50
2022-12-18T09:31:44.312Z,14.07
2022-12-18T09:34:13.416Z,13.17
2022-12-18T09:36:42.448Z,14.13
2022-12-18T09:39:15.084Z,15.53
2022-12-18T09:41:50.723Z,17.93
2022-12-18T09:44:27.696Z,15.63
2022-12-18T09:47:07.514Z,20.33
2022-12-18T09:49:41.592Z,16.60
2022-12-18T09:52:15.502Z,13.83
2022-12-18T09:54:49.552Z,12.97
2022-12-18T09:57:22.078Z,12.37
2022-12-18T09:59:56.089Z,12.20
2022-12-18T10:02:27.027Z,11.60
2022-12-18T10:05:06.794Z,12.80
2022-12-18T10:07:45.574Z,12.33
2022-12-18T10:10:29.604Z,12.40
2022-12-18T10:13:09.442Z,12.27
2022-12-18T10:15:47.019Z,12.13
2022-12-18T10:18:29.035Z,11.50
2022-12-18T10:21:02.098Z,12.10
2022-12-18T10:23:46.388Z,11.07
2022-12-18T10:26:20.232Z,11.37
2022-12-18T10:28:52.479Z,11.37
2022-12-18T10:31:27.458Z,10.87
2022-12-18T10:33:59.835Z,10.40
2022-12-18T10:36:29.325Z,10.73
2022-12-18T10:39:20.153Z,10.53
2022-12-18T10:41:52.206Z,11.17
2022-12-18T10:44:23.250Z,12.40
2022-12-18T10:46:56.756Z,12.00
2022-12-18T10:49:29.674Z,14.43
2022-12-18T10:52:10.799Z,12.40
2022-12-18T10:54:41.472Z,12.83
2022-12-18T10:57:39.222Z,12.97
2022-12-18T11:00:32.858Z,13.63
2022-12-18T11:03:04.369Z,13.43
2022-12-18T11:05:37.303Z,13.37
2022-12-18T11:08:06.563Z,14.00
2022-12-18T11:10:41.321Z,13.40
2022-12-18T11:13:31.424Z,13.27
2022-12-18T11:16:01.020Z,13.80
2022-12-18T11:18:32.630Z,13.17
2022-12-18T11:21:08.095Z,12.87
2022-12-18T11:23:39.147Z,14.00
2022-12-18T11:26:09.471Z,12.07
2022-12-18T11:28:42.801Z,12.93
2022-12-18T11:31:22.478Z,11.67
2022-12-18T11:36:53.042Z,11.03
2022-12-18T11:39:30.508Z,10.93
2022-12-18T11:42:13.161Z,10.03
2022-12-18T11:44:51.177Z,11.47
2022-12-18T11:47:30.115Z,10.97
2022-12-18T11:50:02.594Z,10.47
2022-12-18T11:52:36.887Z,10.23
2022-12-18T11:55:15.599Z,9.57
2022-12-18T11:57:51.761Z,10.30
2022-12-18T12:00:29.264Z,9.33
2022-12-18T12:03:23.323Z,9.77
2022-12-18T12:06:05.025Z,9.87
2022-12-18T12:08:45.385Z,9.67
2022-12-18T12:11:24.110Z,9.43
2022-12-18T12:14:04.587Z,10.37
2022-12-18T12:16:44.285Z,9.40
2022-12-18T12:19:31.844Z,9.20
2022-12-18T12:22:06.888Z,9.33
2022-12-18T12:24:49.084Z,10.10
2022-12-18T12:27:27.219Z,9.77
2022-12-18T12:30:06.604Z,8.90
2022-12-18T12:33:04.445Z,9.20
2022-12-18T12:35:45.607Z,9.97
2022-12-18T12:38:18.676Z,9.40
2022-12-18T12:40:58.596Z,9.50
2022-12-18T12:43:37.118Z,9.53
2022-12-18T12:46:10.370Z,8.37
2022-12-18T12:48:46.721Z,8.70
2022-12-18T12:51:20.436Z,8.67
2022-12-18T12:53:49.609Z,8.97
2022-12-18T12:56:22.767Z,8.00
2022-12-18T12:59:05.222Z,8.43
2022-12-18T13:01:44.072Z,7.80
2022-12-18T13:04:26.182Z,7.93
2022-12-18T13:07:02.774Z,7.80
2022-12-18T13:09:36.909Z,7.77
2022-12-18T13:12:27.108Z,7.70
2022-12-18T13:14:56.795Z,7.40
2022-12-18T13:17:33.766Z,7.07
2022-12-18T13:20:15.640Z,7.57
2022-12-18T13:22:53.975Z,7.83
2022-12-18T13:25:39.318Z,7.13
2022-12-18T13:28:13.835Z,7.60
2022-12-18T13:30:49.550Z,7.83
2022-12-18T13:36:43.406Z,9.13
2022-12-18T13:39:34.502Z,9.10
2022-12-18T13:42:46.745Z,9.27
2022-12-18T13:45:54.959Z,10.60
2022-12-18T13:48:29.139Z,10.83
2022-12-18T13:51:04.381Z,11.93
2022-12-18T13:53:41.659Z,16.87
2022-12-18T13:56:10.990Z,12.60
2022-12-18T13:58:40.257Z,13.23
2022-12-18T14:01:25.255Z,13.40
2022-12-18T14:04:11.270Z,14.00
2022-12-18T14:06:40.958Z,15.30
2022-12-18T14:09:20.299Z,14.83
2022-12-18T14:11:51.172Z,15.93
2022-12-18T14:14:22.785Z,15.67
2022-12-18T14:16:53.669Z,14.87
2022-12-18T14:19:23.282Z,14.77
2022-12-18T14:21:53.555Z,14.80
2022-12-18T14:24:25.972Z,14.43
2022-12-18T14:26:55.378Z,13.33
2022-12-18T14:29:31.434Z,13.87
2022-12-18T14:32:18.544Z,13.13
2022-12-18T14:34:48.856Z,13.27
2022-12-18T14:37:20.636Z,12.70
2022-12-18T14:40:03.173Z,12.60
2022-12-18T14:42:36.581Z,13.37
2022-12-18T14:45:41.575Z,13.33
2022-12-18T14:48:19.115Z,12.73
2022-12-18T14:51:04.554Z,13.23
2022-12-18T14:53:40.151Z,14.13
2022-12-18T14:56:20.210Z,13.93
2022-12-18T14:58:51.653Z,16.67
2022-12-18T15:01:32.199Z,18.53
2022-12-18T15:04:03.758Z,14.40
2022-12-18T15:06:41.383Z,14.17
2022-12-18T15:09:26.543Z,14.03
2022-12-18T15:12:02.572Z,15.00
2022-12-18T15:14:38.192Z,13.93
2022-12-18T15:17:10.685Z,13.37
2022-12-18T15:19:44.179Z,11.00
2022-12-18T15:22:23.903Z,12.57
2022-12-18T15:24:54.609Z,11.90
2022-12-18T15:27:32.775Z,11.07
2022-12-18T15:30:21.272Z,10.77
2022-12-18T15:32:51.672Z,10.70
2022-12-18T15:35:24.626Z,10.13
2022-12-18T15:37:54.545Z,10.17
2022-12-18T15:40:26.283Z,9.67
2022-12-18T15:43:20.522Z,11.07
2022-12-18T15:45:49.846Z,10.43
2022-12-18T15:48:24.840Z,10.30
2022-12-18T15:50:58.720Z,11.43
2022-12-18T15:53:30.886Z,10.40
2022-12-18T15:56:13.888Z,11.13
2022-12-18T15:58:47.123Z,12.10
2022-12-18T16:01:19.297Z,11.93
2022-12-18T16:03:48.476Z,12.07
2022-12-18T16:06:17.210Z,13.17
2022-12-18T16:08:46.376Z,11.90
2022-12-18T16:11:38.361Z,12.70
2022-12-18T16:14:18.603Z,11.70
2022-12-18T16:16:48.786Z,11.80
2022-12-18T16:19:17.894Z,11.97
2022-12-18T16:21:48.595Z,10.83
2022-12-18T16:24:19.404Z,10.60
2022-12-18T16:26:48.431Z,11.47
2022-12-18T16:29:24.607Z,11.70
2022-12-18T16:31:55.300Z,11.90
2022-12-18T16:34:29.190Z,12.23
2022-12-18T16:37:05.524Z,11.90
2022-12-18T16:39:35.937Z,11.93
2022-12-18T16:42:06.615Z,12.13
2022-12-18T16:44:40.256Z,11.67
2022-12-18T16:47:09.652Z,12.23
2022-12-18T16:49:40.851Z,12.20
2022-12-18T16:52:10.858Z,12.47
2022-12-18T16:54:39.703Z,12.03
2022-12-18T16:57:10.799Z,11.63
2022-12-18T16:59:42.337Z,11.97
2022-12-18T17:02:19.786Z,12.37
2022-12-18T17:04:56.751Z,12.43
2022-12-18T17:07:28.503Z,13.27
2022-12-18T17:09:57.894Z,12.73
2022-12-18T17:12:26.858Z,13.00
2022-12-18T17:14:59.411Z,12.47
2022-12-18T17:17:29.831Z,11.87
2022-12-18T17:19:58.639Z,12.83
2022-12-18T17:22:27.992Z,12.43
2022-12-18T17:24:57.011Z,12.23
2022-12-18T17:27:27.372Z,12.43
2022-12-18T17:29:59.017Z,12.30
2022-12-18T17:32:28.065Z,12.87
2022-12-18T17:34:57.228Z,12.60
2022-12-18T17:37:27.376Z,11.77
2022-12-18T17:39:56.238Z,11.87
2022-12-18T17:42:29.553Z,11.57
2022-12-18T17:45:01.440Z,11.73
2022-12-18T17:47:30.715Z,11.30
2022-12-18T17:50:00.370Z,11.70
2022-12-18T17:52:29.749Z,10.80
2022-12-18T17:54:58.748Z,11.67
2022-12-18T17:57:28.437Z,11.83
2022-12-18T17:59:59.681Z,11.63
2022-12-18T18:02:29.576Z,11.23
2022-12-18T18:04:59.838Z,11.10
2022-12-18T18:07:29.125Z,11.27
2022-12-18T18:09:58.184Z,12.10
2022-12-18T18:12:39.923Z,10.73
2022-12-18T18:15:13.093Z,13.80
2022-12-18T18:17:42.804Z,11.23
2022-12-18T18:20:20.692Z,10.87
2022-12-18T18:22:56.244Z,11.60
2022-12-18T18:25:27.561Z,11.27
2022-12-18T18:27:58.061Z,12.07
2022-12-18T18:30:30.612Z,11.10
2022-12-18T18:33:01.508Z,11.70
2022-12-18T18:35:53.387Z,12.13
2022-12-18T18:38:23.645Z,11.93
2022-12-18T18:41:03.079Z,13.07
2022-12-18T18:43:33.802Z,14.87
2022-12-18T18:46:07.122Z,12.00
2022-12-18T18:48:39.836Z,13.23
2022-12-18T18:51:20.894Z,12.90
2022-12-18T18:53:53.249Z,12.43
2022-12-18T18:56:56.679Z,12.30
2022-12-18T18:59:16.923Z,12.97
2022-12-18T19:01:52.367Z,13.27
2022-12-18T19:04:22.195Z,12.57
2022-12-18T19:06:51.504Z,12.53
2022-12-18T19:09:21.764Z,12.37
2022-12-18T19:12:04.689Z,12.87
2022-12-18T19:14:34.413Z,14.03
2022-12-18T19:17:06.007Z,12.70
2022-12-18T19:19:39.424Z,13.37
2022-12-18T19:22:10.495Z,13.90
2022-12-18T19:24:39.855Z,13.13
2022-12-18T19:27:10.613Z,12.87
2022-12-18T19:29:39.514Z,13.10
2022-12-18T19:32:11.376Z,13.37
2022-12-18T19:34:41.639Z,13.30
2022-12-18T19:37:12.612Z,13.10
2022-12-18T19:39:45.296Z,12.97
2022-12-18T19:42:14.444Z,11.77
2022-12-18T19:44:44.275Z,13.43
2022-12-18T19:47:17.001Z,12.17
2022-12-18T19:49:46.317Z,12.23
2022-12-18T19:52:21.774Z,12.63
2022-12-18T19:54:51.471Z,12.07
2022-12-18T19:57:20.484Z,11.67
2022-12-18T19:59:49.903Z,11.73
2022-12-18T20:02:21.175Z,11.70
2022-12-18T20:04:51.274Z,12.07
2022-12-18T20:07:20.272Z,11.77
2022-12-18T20:09:51.644Z,11.67
2022-12-18T20:12:28.024Z,11.17
2022-12-18T20:14:57.423Z,10.67
2022-12-18T20:17:32.575Z,11.57
2022-12-18T20:20:03.585Z,11.07
2022-12-18T20:22:33.617Z,10.70
2022-12-18T20:25:04.236Z,10.43
2022-12-18T20:27:33.742Z,10.13
2022-12-18T20:30:02.670Z,10.73
2022-12-18T20:32:37.234Z,9.80
2022-12-18T20:35:07.136Z,10.30
2022-12-18T20:37:37.435Z,9.97
2022-12-18T20:40:11.227Z,9.97
2022-12-18T20:42:42.620Z,9.53
2022-12-18T20:45:16.906Z,9.50
2022-12-18T20:47:48.201Z,10.27
2022-12-18T20:50:17.314Z,9.90
2022-12-18T20:52:50.000Z,10.13
2022-12-18T20:55:20.052Z,10.40
2022-12-18T20:57:49.037Z,10.83
2022-12-18T21:00:21.191Z,9.80
2022-12-18T21:02:53.193Z,10.20
2022-12-18T21:05:23.102Z,10.93
2022-12-18T21:07:52.271Z,10.87
2022-12-18T21:10:21.299Z,9.70
2022-12-18T21:12:50.930Z,11.30
2022-12-18T21:15:28.887Z,11.23
2022-12-18T21:18:00.090Z,11.57
2022-12-18T21:20:29.062Z,10.93
2022-12-18T21:23:11.269Z,10.80
2022-12-18T21:25:46.651Z,11.27
2022-12-18T21:28:18.740Z,12.20
2022-12-18T21:30:48.730Z,10.73
2022-12-18T21:33:21.021Z,11.27
2022-12-18T21:35:50.452Z,11.07
2022-12-18T21:38:19.560Z,10.90
2022-12-18T21:40:51.203Z,11.50
2022-12-18T21:43:32.998Z,11.30
2022-12-18T21:46:02.321Z,11.77
2022-12-18T21:48:34.314Z,11.87
2022-12-18T21:51:06.450Z,11.70
2022-12-18T21:53:38.857Z,11.47
2022-12-18T21:56:08.575Z,11.73
2022-12-18T21:58:40.920Z,11.07
2022-12-18T22:01:26.903Z,11.97
2022-12-18T22:04:08.839Z,11.67
2022-12-18T22:06:37.724Z,10.97
2022-12-18T22:09:08.356Z,10.90
2022-12-18T22:11:39.842Z,10.70
2022-12-18T22:14:09.817Z,10.60
2022-12-18T22:16:40.324Z,10.37
2022-12-18T22:19:14.835Z,10.70
2022-12-18T22:21:45.769Z,10.33
2022-12-18T22:24:18.238Z,10.57
2022-12-18T22:26:51.015Z,11.23
2022-12-18T22:29:34.464Z,9.83
2022-12-18T22:32:04.482Z,10.67
2022-12-18T22:34:38.198Z,11.47
2022-12-18T22:37:08.069Z,11.37
2022-12-18T22:39:38.561Z,11.73
2022-12-18T22:42:08.579Z,11.03
2022-12-18T22:44:37.077Z,11.20
2022-12-18T22:47:09.157Z,10.57
2022-12-18T22:49:40.593Z,10.33
2022-12-18T22:52:12.060Z,10.83
2022-12-18T22:54:43.736Z,10.03
2022-12-18T22:57:13.612Z,9.77
2022-12-18T22:59:45.094Z,10.03
2022-12-18T23:02:14.467Z,10.33
2022-12-18T23:04:45.478Z,10.37
2022-12-18T23:07:14.770Z,10.30
2022-12-18T23:09:43.775Z,10.10
2022-12-18T23:12:17.993Z,10.53
2022-12-18T23:14:47.471Z,9.27
2022-12-18T23:17:16.700Z,9.93
2022-12-18T23:19:49.374Z,10.00
2022-12-18T23:22:18.711Z,9.80
2022-12-18T23:24:48.178Z,10.27
2022-12-18T23:27:17.901Z,9.43
2022-12-18T23:29:47.277Z,9.20
2022-12-18T23:32:18.529Z,9.37
2022-12-18T23:34:53.013Z,8.97
2022-12-18T23:37:49.911Z,9.23
2022-12-18T23:40:15.958Z,9.13
2022-12-18T23:42:45.184Z,10.00
2022-12-18T23:45:17.818Z,8.97
2022-12-18T23:47:50.882Z,9.80
2022-12-18T23:50:29.714Z,9.40
2022-12-18T23:53:05.509Z,9.60
2022-12-18T23:55:40.668Z,9.33
2022-12-18T23:58:11.001Z,9.43
